sensor_id;sensor_type;location;lat;lon;timestamp;P1;durP1;ratioP1;P2;durP2;ratioP2
7074;SDS011;3578;51.568;6.932;2023-05-07T00:01:41;19.60;;;17.80;;
7074;SDS011;3578;51.568;6.932;2023-05-07T00:04:08;20.10;;;18.20;;
7074;SDS011;3578;51.568;6.932;2023-05-07T00:06:34;23.63;;;21.43;;
7074;SDS011;3578;51.568;6.932;2023-05-07T00:09:03;22.07;;;19.73;;
7074;SDS011;3578;51.568;6.932;2023-05-07T00:11:30;20.70;;;18.70;;
7074;SDS011;3578;51.568;6.932;2023-05-07T00:13:57;21.57;;;19.40;;
7074;SDS011;3578;51.568;6.932;2023-05-07T00:16:24;22.10;;;20.20;;
7074;SDS011;3578;51.568;6.932;2023-05-07T00:18:52;22.47;;;20.37;;
7074;SDS011;3578;51.568;6.932;2023-05-07T00:21:19;20.80;;;18.90;;
7074;SDS011;3578;51.568;6.932;2023-05-07T00:23:46;20.30;;;18.60;;
7074;SDS011;3578;51.568;6.932;2023-05-07T00:26:14;22.57;;;20.57;;
7074;SDS011;3578;51.568;6.932;2023-05-07T00:28:42;23.60;;;21.27;;
7074;SDS011;3578;51.568;6.932;2023-05-07T00:31:09;22.63;;;20.63;;
7074;SDS011;3578;51.568;6.932;2023-05-07T00:33:35;22.07;;;20.00;;
7074;SDS011;3578;51.568;6.932;2023-05-07T00:36:04;23.20;;;21.20;;
7074;SDS011;3578;51.568;6.932;2023-05-07T00:38:31;21.70;;;19.80;;
7074;SDS011;3578;51.568;6.932;2023-05-07T00:40:59;21.27;;;19.23;;
7074;SDS011;3578;51.568;6.932;2023-05-07T00:43:28;24.40;;;21.87;;
7074;SDS011;3578;51.568;6.932;2023-05-07T00:45:55;19.77;;;18.17;;
7074;SDS011;3578;51.568;6.932;2023-05-07T00:48:22;20.77;;;18.63;;
7074;SDS011;3578;51.568;6.932;2023-05-07T00:50:50;20.83;;;18.90;;
7074;SDS011;3578;51.568;6.932;2023-05-07T00:53:18;20.90;;;18.93;;
7074;SDS011;3578;51.568;6.932;2023-05-07T00:55:45;22.27;;;20.47;;
7074;SDS011;3578;51.568;6.932;2023-05-07T00:58:12;20.47;;;18.57;;
7074;SDS011;3578;51.568;6.932;2023-05-07T01:00:40;23.57;;;21.43;;
7074;SDS011;3578;51.568;6.932;2023-05-07T01:03:07;22.63;;;20.37;;
7074;SDS011;3578;51.568;6.932;2023-05-07T01:05:34;22.73;;;20.70;;
7074;SDS011;3578;51.568;6.932;2023-05-07T01:08:02;22.67;;;20.67;;
7074;SDS011;3578;51.568;6.932;2023-05-07T01:10:30;19.23;;;17.53;;
7074;SDS011;3578;51.568;6.932;2023-05-07T01:12:57;22.67;;;20.30;;
7074;SDS011;3578;51.568;6.932;2023-05-07T01:15:25;20.70;;;18.80;;
7074;SDS011;3578;51.568;6.932;2023-05-07T01:17:54;25.53;;;22.93;;
7074;SDS011;3578;51.568;6.932;2023-05-07T01:20:22;25.70;;;23.40;;
7074;SDS011;3578;51.568;6.932;2023-05-07T01:22:51;23.87;;;21.40;;
7074;SDS011;3578;51.568;6.932;2023-05-07T01:25:19;22.33;;;20.50;;
7074;SDS011;3578;51.568;6.932;2023-05-07T01:27:46;24.17;;;21.90;;
7074;SDS011;3578;51.568;6.932;2023-05-07T01:30:13;24.27;;;22.17;;
7074;SDS011;3578;51.568;6.932;2023-05-07T01:32:42;26.03;;;22.67;;
7074;SDS011;3578;51.568;6.932;2023-05-07T01:35:15;28.80;;;24.27;;
7074;SDS011;3578;51.568;6.932;2023-05-07T01:37:45;27.20;;;23.57;;
7074;SDS011;3578;51.568;6.932;2023-05-07T01:40:14;25.27;;;22.73;;
7074;SDS011;3578;51.568;6.932;2023-05-07T01:42:42;24.10;;;21.60;;
7074;SDS011;3578;51.568;6.932;2023-05-07T01:45:10;23.07;;;20.87;;
7074;SDS011;3578;51.568;6.932;2023-05-07T01:47:37;27.73;;;23.73;;
7074;SDS011;3578;51.568;6.932;2023-05-07T01:50:06;26.97;;;24.27;;
7074;SDS011;3578;51.568;6.932;2023-05-07T01:52:35;26.30;;;23.47;;
7074;SDS011;3578;51.568;6.932;2023-05-07T01:55:04;27.67;;;24.93;;
7074;SDS011;3578;51.568;6.932;2023-05-07T01:57:34;29.37;;;25.87;;
7074;SDS011;3578;51.568;6.932;2023-05-07T02:00:01;28.43;;;25.73;;
7074;SDS011;3578;51.568;6.932;2023-05-07T02:02:31;32.03;;;28.83;;
7074;SDS011;3578;51.568;6.932;2023-05-07T02:04:58;31.10;;;27.80;;
7074;SDS011;3578;51.568;6.932;2023-05-07T02:07:25;22.87;;;20.77;;
7074;SDS011;3578;51.568;6.932;2023-05-07T02:09:52;26.73;;;24.23;;
7074;SDS011;3578;51.568;6.932;2023-05-07T02:12:20;28.77;;;25.90;;
7074;SDS011;3578;51.568;6.932;2023-05-07T02:14:48;24.97;;;21.70;;
7074;SDS011;3578;51.568;6.932;2023-05-07T02:17:15;27.67;;;24.97;;
7074;SDS011;3578;51.568;6.932;2023-05-07T02:19:42;28.30;;;25.70;;
7074;SDS011;3578;51.568;6.932;2023-05-07T02:22:09;29.30;;;25.90;;
7074;SDS011;3578;51.568;6.932;2023-05-07T02:24:36;25.77;;;23.17;;
7074;SDS011;3578;51.568;6.932;2023-05-07T02:27:03;30.30;;;27.53;;
7074;SDS011;3578;51.568;6.932;2023-05-07T02:29:30;27.20;;;24.60;;
7074;SDS011;3578;51.568;6.932;2023-05-07T02:31:58;29.90;;;26.90;;
7074;SDS011;3578;51.568;6.932;2023-05-07T02:34:26;28.43;;;25.63;;
7074;SDS011;3578;51.568;6.932;2023-05-07T02:36:52;28.67;;;25.87;;
7074;SDS011;3578;51.568;6.932;2023-05-07T02:39:20;28.30;;;25.60;;
7074;SDS011;3578;51.568;6.932;2023-05-07T02:41:47;30.57;;;27.87;;
7074;SDS011;3578;51.568;6.932;2023-05-07T02:44:14;27.97;;;24.97;;
7074;SDS011;3578;51.568;6.932;2023-05-07T02:46:41;30.57;;;27.67;;
7074;SDS011;3578;51.568;6.932;2023-05-07T02:49:09;29.77;;;26.57;;
7074;SDS011;3578;51.568;6.932;2023-05-07T02:51:36;28.97;;;26.17;;
7074;SDS011;3578;51.568;6.932;2023-05-07T02:54:03;27.67;;;25.23;;
7074;SDS011;3578;51.568;6.932;2023-05-07T02:56:31;31.93;;;28.40;;
7074;SDS011;3578;51.568;6.932;2023-05-07T02:58:57;32.43;;;28.60;;
7074;SDS011;3578;51.568;6.932;2023-05-07T03:01:24;30.93;;;28.07;;
7074;SDS011;3578;51.568;6.932;2023-05-07T03:03:51;29.97;;;27.17;;
7074;SDS011;3578;51.568;6.932;2023-05-07T03:06:20;30.57;;;27.33;;
7074;SDS011;3578;51.568;6.932;2023-05-07T03:08:46;30.37;;;27.37;;
7074;SDS011;3578;51.568;6.932;2023-05-07T03:11:13;26.77;;;24.07;;
7074;SDS011;3578;51.568;6.932;2023-05-07T03:13:40;29.30;;;26.40;;
7074;SDS011;3578;51.568;6.932;2023-05-07T03:16:07;30.87;;;27.93;;
7074;SDS011;3578;51.568;6.932;2023-05-07T03:18:34;30.70;;;27.27;;
7074;SDS011;3578;51.568;6.932;2023-05-07T03:21:01;27.43;;;24.90;;
7074;SDS011;3578;51.568;6.932;2023-05-07T03:23:30;31.30;;;27.70;;
7074;SDS011;3578;51.568;6.932;2023-05-07T03:25:57;31.23;;;28.13;;
7074;SDS011;3578;51.568;6.932;2023-05-07T03:28:24;30.37;;;27.47;;
7074;SDS011;3578;51.568;6.932;2023-05-07T03:30:50;32.90;;;29.60;;
7074;SDS011;3578;51.568;6.932;2023-05-07T03:33:17;33.27;;;29.77;;
7074;SDS011;3578;51.568;6.932;2023-05-07T03:35:44;28.47;;;25.57;;
7074;SDS011;3578;51.568;6.932;2023-05-07T03:38:11;32.00;;;28.60;;
7074;SDS011;3578;51.568;6.932;2023-05-07T03:40:40;36.83;;;32.53;;
7074;SDS011;3578;51.568;6.932;2023-05-07T03:43:07;35.10;;;31.30;;
7074;SDS011;3578;51.568;6.932;2023-05-07T03:45:34;37.90;;;32.20;;
7074;SDS011;3578;51.568;6.932;2023-05-07T03:48:01;37.60;;;33.53;;
7074;SDS011;3578;51.568;6.932;2023-05-07T03:50:28;33.63;;;29.97;;
7074;SDS011;3578;51.568;6.932;2023-05-07T03:52:55;43.00;;;31.70;;
7074;SDS011;3578;51.568;6.932;2023-05-07T03:55:22;35.53;;;31.73;;
7074;SDS011;3578;51.568;6.932;2023-05-07T03:57:50;40.83;;;32.53;;
7074;SDS011;3578;51.568;6.932;2023-05-07T04:00:17;41.27;;;33.20;;
7074;SDS011;3578;51.568;6.932;2023-05-07T04:02:45;35.40;;;31.40;;
7074;SDS011;3578;51.568;6.932;2023-05-07T04:05:12;32.90;;;29.40;;
7074;SDS011;3578;51.568;6.932;2023-05-07T04:07:40;34.43;;;30.87;;
7074;SDS011;3578;51.568;6.932;2023-05-07T04:10:07;33.87;;;29.33;;
7074;SDS011;3578;51.568;6.932;2023-05-07T04:12:35;32.87;;;29.10;;
7074;SDS011;3578;51.568;6.932;2023-05-07T04:15:03;32.80;;;29.40;;
7074;SDS011;3578;51.568;6.932;2023-05-07T04:17:31;32.83;;;29.63;;
7074;SDS011;3578;51.568;6.932;2023-05-07T04:19:58;32.93;;;29.40;;
7074;SDS011;3578;51.568;6.932;2023-05-07T04:22:25;31.97;;;28.50;;
7074;SDS011;3578;51.568;6.932;2023-05-07T04:24:52;30.90;;;28.00;;
7074;SDS011;3578;51.568;6.932;2023-05-07T04:27:19;29.70;;;26.67;;
7074;SDS011;3578;51.568;6.932;2023-05-07T04:29:46;27.47;;;24.90;;
7074;SDS011;3578;51.568;6.932;2023-05-07T04:32:15;31.23;;;27.67;;
7074;SDS011;3578;51.568;6.932;2023-05-07T04:34:42;32.70;;;28.43;;
7074;SDS011;3578;51.568;6.932;2023-05-07T04:37:09;30.33;;;27.50;;
7074;SDS011;3578;51.568;6.932;2023-05-07T04:39:36;33.37;;;29.87;;
7074;SDS011;3578;51.568;6.932;2023-05-07T04:42:03;29.97;;;26.97;;
7074;SDS011;3578;51.568;6.932;2023-05-07T04:44:33;29.17;;;26.33;;
7074;SDS011;3578;51.568;6.932;2023-05-07T04:47:02;31.67;;;28.20;;
7074;SDS011;3578;51.568;6.932;2023-05-07T04:49:30;32.50;;;29.30;;
7074;SDS011;3578;51.568;6.932;2023-05-07T04:51:57;31.17;;;28.10;;
7074;SDS011;3578;51.568;6.932;2023-05-07T04:54:24;32.00;;;28.70;;
7074;SDS011;3578;51.568;6.932;2023-05-07T04:56:51;31.00;;;27.87;;
7074;SDS011;3578;51.568;6.932;2023-05-07T04:59:18;29.43;;;26.63;;
7074;SDS011;3578;51.568;6.932;2023-05-07T05:01:45;32.33;;;29.13;;
7074;SDS011;3578;51.568;6.932;2023-05-07T05:04:12;32.53;;;27.27;;
7074;SDS011;3578;51.568;6.932;2023-05-07T05:06:40;32.40;;;27.00;;
7074;SDS011;3578;51.568;6.932;2023-05-07T05:09:07;29.17;;;26.00;;
7074;SDS011;3578;51.568;6.932;2023-05-07T05:11:34;28.10;;;25.40;;
7074;SDS011;3578;51.568;6.932;2023-05-07T05:14:01;27.10;;;24.30;;
7074;SDS011;3578;51.568;6.932;2023-05-07T05:16:28;26.00;;;23.60;;
7074;SDS011;3578;51.568;6.932;2023-05-07T05:18:55;25.37;;;22.77;;
7074;SDS011;3578;51.568;6.932;2023-05-07T05:21:22;26.03;;;22.27;;
7074;SDS011;3578;51.568;6.932;2023-05-07T05:23:50;24.53;;;22.10;;
7074;SDS011;3578;51.568;6.932;2023-05-07T05:26:18;25.17;;;22.70;;
7074;SDS011;3578;51.568;6.932;2023-05-07T05:28:46;25.40;;;22.43;;
7074;SDS011;3578;51.568;6.932;2023-05-07T05:31:13;22.80;;;20.47;;
7074;SDS011;3578;51.568;6.932;2023-05-07T05:33:40;22.97;;;20.67;;
7074;SDS011;3578;51.568;6.932;2023-05-07T05:36:08;23.90;;;21.33;;
7074;SDS011;3578;51.568;6.932;2023-05-07T05:38:37;30.30;;;21.07;;
7074;SDS011;3578;51.568;6.932;2023-05-07T05:41:05;24.10;;;19.83;;
7074;SDS011;3578;51.568;6.932;2023-05-07T05:43:32;21.90;;;19.47;;
7074;SDS011;3578;51.568;6.932;2023-05-07T05:45:59;19.60;;;17.70;;
7074;SDS011;3578;51.568;6.932;2023-05-07T05:48:26;21.03;;;17.00;;
7074;SDS011;3578;51.568;6.932;2023-05-07T05:50:54;19.20;;;16.63;;
7074;SDS011;3578;51.568;6.932;2023-05-07T05:53:21;19.13;;;16.77;;
7074;SDS011;3578;51.568;6.932;2023-05-07T05:55:48;23.33;;;14.97;;
7074;SDS011;3578;51.568;6.932;2023-05-07T05:58:17;15.87;;;14.37;;
7074;SDS011;3578;51.568;6.932;2023-05-07T06:00:45;16.57;;;15.07;;
7074;SDS011;3578;51.568;6.932;2023-05-07T06:03:13;15.17;;;13.63;;
7074;SDS011;3578;51.568;6.932;2023-05-07T06:05:40;15.00;;;13.00;;
7074;SDS011;3578;51.568;6.932;2023-05-07T06:08:07;13.40;;;12.00;;
7074;SDS011;3578;51.568;6.932;2023-05-07T06:10:35;13.37;;;11.27;;
7074;SDS011;3578;51.568;6.932;2023-05-07T06:13:02;12.17;;;10.70;;
7074;SDS011;3578;51.568;6.932;2023-05-07T06:15:31;12.70;;;11.50;;
7074;SDS011;3578;51.568;6.932;2023-05-07T06:17:58;13.43;;;12.03;;
7074;SDS011;3578;51.568;6.932;2023-05-07T06:20:24;12.40;;;11.10;;
7074;SDS011;3578;51.568;6.932;2023-05-07T06:22:51;14.67;;;11.63;;
7074;SDS011;3578;51.568;6.932;2023-05-07T06:25:18;18.90;;;10.80;;
7074;SDS011;3578;51.568;6.932;2023-05-07T06:27:46;10.40;;;9.50;;
7074;SDS011;3578;51.568;6.932;2023-05-07T06:30:12;12.30;;;9.87;;
7074;SDS011;3578;51.568;6.932;2023-05-07T06:32:41;10.30;;;9.30;;
7074;SDS011;3578;51.568;6.932;2023-05-07T06:35:08;10.37;;;9.43;;
7074;SDS011;3578;51.568;6.932;2023-05-07T06:37:35;9.00;;;8.20;;
7074;SDS011;3578;51.568;6.932;2023-05-07T06:40:03;10.13;;;8.83;;
7074;SDS011;3578;51.568;6.932;2023-05-07T06:42:32;10.50;;;9.50;;
7074;SDS011;3578;51.568;6.932;2023-05-07T06:45:00;14.80;;;9.47;;
7074;SDS011;3578;51.568;6.932;2023-05-07T06:47:27;17.30;;;9.10;;
7074;SDS011;3578;51.568;6.932;2023-05-07T06:49:56;10.97;;;9.23;;
7074;SDS011;3578;51.568;6.932;2023-05-07T06:52:22;8.57;;;7.70;;
7074;SDS011;3578;51.568;6.932;2023-05-07T06:54:49;10.40;;;7.30;;
7074;SDS011;3578;51.568;6.932;2023-05-07T06:57:16;7.77;;;7.00;;
7074;SDS011;3578;51.568;6.932;2023-05-07T06:59:43;10.03;;;7.77;;
7074;SDS011;3578;51.568;6.932;2023-05-07T07:02:10;9.10;;;8.20;;
7074;SDS011;3578;51.568;6.932;2023-05-07T07:04:37;9.80;;;7.33;;
7074;SDS011;3578;51.568;6.932;2023-05-07T07:07:06;7.60;;;6.90;;
7074;SDS011;3578;51.568;6.932;2023-05-07T07:09:33;7.63;;;5.80;;
7074;SDS011;3578;51.568;6.932;2023-05-07T07:12:00;13.27;;;7.23;;
7074;SDS011;3578;51.568;6.932;2023-05-07T07:14:27;13.80;;;6.73;;
7074;SDS011;3578;51.568;6.932;2023-05-07T07:16:54;5.87;;;5.43;;
7074;SDS011;3578;51.568;6.932;2023-05-07T07:19:21;11.50;;;5.87;;
7074;SDS011;3578;51.568;6.932;2023-05-07T07:21:48;26.33;;;7.10;;
7074;SDS011;3578;51.568;6.932;2023-05-07T07:24:16;20.33;;;6.50;;
7074;SDS011;3578;51.568;6.932;2023-05-07T07:26:46;8.83;;;7.07;;
7074;SDS011;3578;51.568;6.932;2023-05-07T07:29:13;5.73;;;5.33;;
7074;SDS011;3578;51.568;6.932;2023-05-07T07:31:40;7.20;;;5.67;;
7074;SDS011;3578;51.568;6.932;2023-05-07T07:34:06;5.97;;;5.27;;
7074;SDS011;3578;51.568;6.932;2023-05-07T07:36:33;7.13;;;4.77;;
7074;SDS011;3578;51.568;6.932;2023-05-07T07:39:00;8.03;;;5.00;;
7074;SDS011;3578;51.568;6.932;2023-05-07T07:41:29;9.03;;;4.77;;
7074;SDS011;3578;51.568;6.932;2023-05-07T07:43:56;9.93;;;5.30;;
7074;SDS011;3578;51.568;6.932;2023-05-07T07:46:22;8.53;;;5.20;;
7074;SDS011;3578;51.568;6.932;2023-05-07T07:48:51;5.20;;;4.80;;
7074;SDS011;3578;51.568;6.932;2023-05-07T07:51:19;6.80;;;4.30;;
7074;SDS011;3578;51.568;6.932;2023-05-07T07:53:46;7.60;;;4.37;;
7074;SDS011;3578;51.568;6.932;2023-05-07T07:56:13;7.87;;;4.60;;
7074;SDS011;3578;51.568;6.932;2023-05-07T07:58:41;5.33;;;4.20;;
7074;SDS011;3578;51.568;6.932;2023-05-07T08:01:08;7.47;;;4.87;;
7074;SDS011;3578;51.568;6.932;2023-05-07T08:03:37;5.83;;;5.07;;
7074;SDS011;3578;51.568;6.932;2023-05-07T08:06:04;4.70;;;4.40;;
7074;SDS011;3578;51.568;6.932;2023-05-07T08:08:31;5.10;;;4.60;;
7074;SDS011;3578;51.568;6.932;2023-05-07T08:10:58;6.97;;;4.80;;
7074;SDS011;3578;51.568;6.932;2023-05-07T08:13:25;5.23;;;4.83;;
7074;SDS011;3578;51.568;6.932;2023-05-07T08:15:53;8.77;;;5.00;;
7074;SDS011;3578;51.568;6.932;2023-05-07T08:18:20;4.30;;;4.00;;
7074;SDS011;3578;51.568;6.932;2023-05-07T08:20:48;6.33;;;5.07;;
7074;SDS011;3578;51.568;6.932;2023-05-07T08:23:15;5.00;;;4.63;;
7074;SDS011;3578;51.568;6.932;2023-05-07T08:25:42;5.03;;;4.70;;
7074;SDS011;3578;51.568;6.932;2023-05-07T08:28:09;5.10;;;4.70;;
7074;SDS011;3578;51.568;6.932;2023-05-07T08:30:36;5.40;;;4.93;;
7074;SDS011;3578;51.568;6.932;2023-05-07T08:33:04;5.70;;;4.90;;
7074;SDS011;3578;51.568;6.932;2023-05-07T08:35:31;5.87;;;5.37;;
7074;SDS011;3578;51.568;6.932;2023-05-07T08:37:58;6.37;;;5.70;;
7074;SDS011;3578;51.568;6.932;2023-05-07T08:40:26;6.20;;;5.60;;
7074;SDS011;3578;51.568;6.932;2023-05-07T08:42:53;9.30;;;5.73;;
7074;SDS011;3578;51.568;6.932;2023-05-07T08:45:22;6.00;;;5.50;;
7074;SDS011;3578;51.568;6.932;2023-05-07T08:47:51;6.67;;;6.07;;
7074;SDS011;3578;51.568;6.932;2023-05-07T08:50:29;6.87;;;6.00;;
7074;SDS011;3578;51.568;6.932;2023-05-07T08:52:56;7.47;;;6.77;;
7074;SDS011;3578;51.568;6.932;2023-05-07T08:55:23;8.23;;;6.30;;
7074;SDS011;3578;51.568;6.932;2023-05-07T08:57:51;8.57;;;7.80;;
7074;SDS011;3578;51.568;6.932;2023-05-07T09:00:18;7.07;;;6.47;;
7074;SDS011;3578;51.568;6.932;2023-05-07T09:02:45;7.53;;;6.83;;
7074;SDS011;3578;51.568;6.932;2023-05-07T09:05:12;7.03;;;6.33;;
7074;SDS011;3578;51.568;6.932;2023-05-07T09:07:41;8.57;;;7.60;;
7074;SDS011;3578;51.568;6.932;2023-05-07T09:10:08;8.63;;;7.53;;
7074;SDS011;3578;51.568;6.932;2023-05-07T09:12:35;8.70;;;7.90;;
7074;SDS011;3578;51.568;6.932;2023-05-07T09:15:03;7.70;;;6.90;;
7074;SDS011;3578;51.568;6.932;2023-05-07T09:17:31;10.40;;;8.57;;
7074;SDS011;3578;51.568;6.932;2023-05-07T09:20:01;7.93;;;7.30;;
7074;SDS011;3578;51.568;6.932;2023-05-07T09:22:31;10.53;;;7.53;;
7074;SDS011;3578;51.568;6.932;2023-05-07T09:24:59;7.10;;;6.40;;
7074;SDS011;3578;51.568;6.932;2023-05-07T09:27:26;10.00;;;7.63;;
7074;SDS011;3578;51.568;6.932;2023-05-07T09:29:53;8.17;;;6.60;;
7074;SDS011;3578;51.568;6.932;2023-05-07T09:32:21;10.07;;;6.83;;
7074;SDS011;3578;51.568;6.932;2023-05-07T09:34:48;8.07;;;7.27;;
7074;SDS011;3578;51.568;6.932;2023-05-07T09:37:14;7.80;;;7.10;;
7074;SDS011;3578;51.568;6.932;2023-05-07T09:39:43;6.80;;;6.00;;
7074;SDS011;3578;51.568;6.932;2023-05-07T09:42:13;8.00;;;7.20;;
7074;SDS011;3578;51.568;6.932;2023-05-07T09:44:41;7.80;;;7.07;;
7074;SDS011;3578;51.568;6.932;2023-05-07T09:47:09;8.50;;;5.57;;
7074;SDS011;3578;51.568;6.932;2023-05-07T09:49:38;5.50;;;4.63;;
7074;SDS011;3578;51.568;6.932;2023-05-07T09:52:07;9.90;;;4.30;;
7074;SDS011;3578;51.568;6.932;2023-05-07T09:54:35;4.70;;;3.93;;
7074;SDS011;3578;51.568;6.932;2023-05-07T09:57:04;8.47;;;3.63;;
7074;SDS011;3578;51.568;6.932;2023-05-07T09:59:33;6.90;;;5.07;;
7074;SDS011;3578;51.568;6.932;2023-05-07T10:02:02;5.80;;;5.30;;
7074;SDS011;3578;51.568;6.932;2023-05-07T10:04:31;5.80;;;5.30;;
7074;SDS011;3578;51.568;6.932;2023-05-07T10:06:58;10.17;;;5.40;;
7074;SDS011;3578;51.568;6.932;2023-05-07T10:09:26;5.90;;;4.50;;
7074;SDS011;3578;51.568;6.932;2023-05-07T10:11:53;5.80;;;5.33;;
7074;SDS011;3578;51.568;6.932;2023-05-07T10:14:21;6.40;;;5.90;;
7074;SDS011;3578;51.568;6.932;2023-05-07T10:16:50;19.73;;;5.40;;
7074;SDS011;3578;51.568;6.932;2023-05-07T10:19:19;7.90;;;5.37;;
7074;SDS011;3578;51.568;6.932;2023-05-07T10:21:48;6.77;;;5.53;;
7074;SDS011;3578;51.568;6.932;2023-05-07T10:24:22;6.70;;;4.57;;
7074;SDS011;3578;51.568;6.932;2023-05-07T10:26:52;6.87;;;4.40;;
7074;SDS011;3578;51.568;6.932;2023-05-07T10:29:24;5.00;;;4.50;;
7074;SDS011;3578;51.568;6.932;2023-05-07T10:32:05;4.93;;;4.43;;
7074;SDS011;3578;51.568;6.932;2023-05-07T10:34:47;10.27;;;4.40;;
7074;SDS011;3578;51.568;6.932;2023-05-07T10:37:16;5.60;;;5.10;;
7074;SDS011;3578;51.568;6.932;2023-05-07T10:39:44;5.40;;;4.33;;
7074;SDS011;3578;51.568;6.932;2023-05-07T10:42:12;3.80;;;3.50;;
7074;SDS011;3578;51.568;6.932;2023-05-07T10:44:40;2.83;;;2.63;;
7074;SDS011;3578;51.568;6.932;2023-05-07T10:47:09;17.80;;;6.10;;
7074;SDS011;3578;51.568;6.932;2023-05-07T10:52:46;4.13;;;3.13;;
7074;SDS011;3578;51.568;6.932;2023-05-07T10:55:51;4.03;;;2.83;;
7074;SDS011;3578;51.568;6.932;2023-05-07T10:58:51;3.30;;;3.03;;
7074;SDS011;3578;51.568;6.932;2023-05-07T11:04:18;8.37;;;4.30;;
7074;SDS011;3578;51.568;6.932;2023-05-07T11:07:09;3.80;;;3.50;;
7074;SDS011;3578;51.568;6.932;2023-05-07T11:10:00;2.83;;;2.63;;
7074;SDS011;3578;51.568;6.932;2023-05-07T11:18:06;9.67;;;3.70;;
7074;SDS011;3578;51.568;6.932;2023-05-07T11:20:54;4.23;;;3.83;;
7074;SDS011;3578;51.568;6.932;2023-05-07T11:26:23;4.00;;;2.40;;
7074;SDS011;3578;51.568;6.932;2023-05-07T11:28:51;5.83;;;2.90;;
7074;SDS011;3578;51.568;6.932;2023-05-07T11:31:23;3.43;;;3.17;;
7074;SDS011;3578;51.568;6.932;2023-05-07T11:33:52;3.07;;;2.50;;
7074;SDS011;3578;51.568;6.932;2023-05-07T11:36:22;3.10;;;2.80;;
7074;SDS011;3578;51.568;6.932;2023-05-07T11:38:50;4.20;;;2.67;;
7074;SDS011;3578;51.568;6.932;2023-05-07T11:41:17;5.60;;;2.63;;
7074;SDS011;3578;51.568;6.932;2023-05-07T11:43:53;4.47;;;3.00;;
7074;SDS011;3578;51.568;6.932;2023-05-07T11:46:22;2.90;;;2.70;;
7074;SDS011;3578;51.568;6.932;2023-05-07T11:48:49;2.60;;;2.40;;
7074;SDS011;3578;51.568;6.932;2023-05-07T11:51:20;3.33;;;3.07;;
7074;SDS011;3578;51.568;6.932;2023-05-07T11:53:51;2.63;;;2.43;;
7074;SDS011;3578;51.568;6.932;2023-05-07T11:56:19;2.93;;;2.47;;
7074;SDS011;3578;51.568;6.932;2023-05-07T11:58:46;3.13;;;2.57;;
7074;SDS011;3578;51.568;6.932;2023-05-07T12:01:14;3.03;;;2.20;;
7074;SDS011;3578;51.568;6.932;2023-05-07T12:03:45;3.47;;;2.33;;
7074;SDS011;3578;51.568;6.932;2023-05-07T12:06:13;2.17;;;2.00;;
7074;SDS011;3578;51.568;6.932;2023-05-07T12:08:44;2.50;;;2.13;;
7074;SDS011;3578;51.568;6.932;2023-05-07T12:11:15;2.43;;;2.23;;
7074;SDS011;3578;51.568;6.932;2023-05-07T12:13:48;2.83;;;2.30;;
7074;SDS011;3578;51.568;6.932;2023-05-07T12:16:15;2.50;;;2.30;;
7074;SDS011;3578;51.568;6.932;2023-05-07T12:18:43;2.73;;;2.53;;
7074;SDS011;3578;51.568;6.932;2023-05-07T12:21:11;2.50;;;2.40;;
7074;SDS011;3578;51.568;6.932;2023-05-07T12:23:38;2.10;;;2.00;;
7074;SDS011;3578;51.568;6.932;2023-05-07T12:26:07;2.70;;;2.50;;
7074;SDS011;3578;51.568;6.932;2023-05-07T12:28:38;4.13;;;3.17;;
7074;SDS011;3578;51.568;6.932;2023-05-07T12:31:05;9.07;;;4.30;;
7074;SDS011;3578;51.568;6.932;2023-05-07T12:33:33;4.30;;;3.90;;
7074;SDS011;3578;51.568;6.932;2023-05-07T12:36:05;6.20;;;3.93;;
7074;SDS011;3578;51.568;6.932;2023-05-07T12:38:36;9.93;;;4.20;;
7074;SDS011;3578;51.568;6.932;2023-05-07T12:41:06;6.33;;;4.03;;
7074;SDS011;3578;51.568;6.932;2023-05-07T12:43:36;4.87;;;4.10;;
7074;SDS011;3578;51.568;6.932;2023-05-07T12:46:04;5.33;;;4.87;;
7074;SDS011;3578;51.568;6.932;2023-05-07T12:48:32;7.30;;;5.00;;
7074;SDS011;3578;51.568;6.932;2023-05-07T12:51:02;6.07;;;5.57;;
7074;SDS011;3578;51.568;6.932;2023-05-07T12:53:29;5.50;;;4.60;;
7074;SDS011;3578;51.568;6.932;2023-05-07T12:55:57;5.20;;;4.80;;
7074;SDS011;3578;51.568;6.932;2023-05-07T12:58:27;6.97;;;6.33;;
7074;SDS011;3578;51.568;6.932;2023-05-07T13:00:58;12.20;;;6.10;;
7074;SDS011;3578;51.568;6.932;2023-05-07T13:03:27;9.33;;;5.97;;
7074;SDS011;3578;51.568;6.932;2023-05-07T13:05:56;9.20;;;6.13;;
7074;SDS011;3578;51.568;6.932;2023-05-07T13:08:26;7.63;;;6.23;;
7074;SDS011;3578;51.568;6.932;2023-05-07T13:10:56;24.60;;;6.23;;
7074;SDS011;3578;51.568;6.932;2023-05-07T13:13:26;22.47;;;6.27;;
7074;SDS011;3578;51.568;6.932;2023-05-07T13:15:53;20.00;;;7.00;;
7074;SDS011;3578;51.568;6.932;2023-05-07T13:18:20;9.43;;;6.33;;
7074;SDS011;3578;51.568;6.932;2023-05-07T13:20:47;57.00;;;10.23;;
7074;SDS011;3578;51.568;6.932;2023-05-07T13:23:14;15.03;;;6.57;;
7074;SDS011;3578;51.568;6.932;2023-05-07T13:25:41;7.03;;;6.00;;
7074;SDS011;3578;51.568;6.932;2023-05-07T13:28:08;11.40;;;7.07;;
7074;SDS011;3578;51.568;6.932;2023-05-07T13:30:36;11.93;;;5.83;;
7074;SDS011;3578;51.568;6.932;2023-05-07T13:33:03;5.50;;;5.00;;
7074;SDS011;3578;51.568;6.932;2023-05-07T13:35:30;13.03;;;7.60;;
7074;SDS011;3578;51.568;6.932;2023-05-07T13:37:57;6.00;;;5.40;;
7074;SDS011;3578;51.568;6.932;2023-05-07T13:40:24;10.67;;;6.80;;
7074;SDS011;3578;51.568;6.932;2023-05-07T13:42:53;8.53;;;6.87;;
7074;SDS011;3578;51.568;6.932;2023-05-07T13:45:25;10.03;;;8.00;;
7074;SDS011;3578;51.568;6.932;2023-05-07T13:47:55;8.87;;;7.97;;
7074;SDS011;3578;51.568;6.932;2023-05-07T13:50:23;9.00;;;7.63;;
7074;SDS011;3578;51.568;6.932;2023-05-07T13:52:51;13.30;;;7.63;;
7074;SDS011;3578;51.568;6.932;2023-05-07T13:55:19;8.67;;;7.50;;
7074;SDS011;3578;51.568;6.932;2023-05-07T13:57:48;12.23;;;7.87;;
7074;SDS011;3578;51.568;6.932;2023-05-07T14:00:21;10.30;;;7.63;;
7074;SDS011;3578;51.568;6.932;2023-05-07T14:02:49;9.37;;;7.47;;
7074;SDS011;3578;51.568;6.932;2023-05-07T14:05:18;8.63;;;6.87;;
7074;SDS011;3578;51.568;6.932;2023-05-07T14:07:45;19.20;;;8.23;;
7074;SDS011;3578;51.568;6.932;2023-05-07T14:10:14;11.40;;;9.10;;
7074;SDS011;3578;51.568;6.932;2023-05-07T14:12:41;8.70;;;7.77;;
7074;SDS011;3578;51.568;6.932;2023-05-07T14:15:08;8.40;;;7.60;;
7074;SDS011;3578;51.568;6.932;2023-05-07T14:17:35;13.70;;;9.20;;
7074;SDS011;3578;51.568;6.932;2023-05-07T14:20:03;9.00;;;8.30;;
7074;SDS011;3578;51.568;6.932;2023-05-07T14:22:33;12.37;;;8.20;;
7074;SDS011;3578;51.568;6.932;2023-05-07T14:25:00;7.80;;;7.10;;
7074;SDS011;3578;51.568;6.932;2023-05-07T14:27:27;16.37;;;8.33;;
7074;SDS011;3578;51.568;6.932;2023-05-07T14:29:54;10.77;;;7.57;;
7074;SDS011;3578;51.568;6.932;2023-05-07T14:32:21;11.03;;;7.90;;
7074;SDS011;3578;51.568;6.932;2023-05-07T14:34:48;9.30;;;8.40;;
7074;SDS011;3578;51.568;6.932;2023-05-07T14:37:15;13.47;;;9.00;;
7074;SDS011;3578;51.568;6.932;2023-05-07T14:39:46;10.43;;;8.43;;
7074;SDS011;3578;51.568;6.932;2023-05-07T14:42:13;9.60;;;8.33;;
7074;SDS011;3578;51.568;6.932;2023-05-07T14:44:40;12.03;;;9.30;;
7074;SDS011;3578;51.568;6.932;2023-05-07T14:47:07;15.47;;;9.90;;
7074;SDS011;3578;51.568;6.932;2023-05-07T14:49:34;12.30;;;10.10;;
7074;SDS011;3578;51.568;6.932;2023-05-07T14:52:01;10.60;;;9.47;;
7074;SDS011;3578;51.568;6.932;2023-05-07T14:54:30;11.30;;;10.13;;
7074;SDS011;3578;51.568;6.932;2023-05-07T14:57:01;12.50;;;11.30;;
7074;SDS011;3578;51.568;6.932;2023-05-07T14:59:29;16.53;;;10.73;;
7074;SDS011;3578;51.568;6.932;2023-05-07T15:01:56;15.87;;;10.87;;
7074;SDS011;3578;51.568;6.932;2023-05-07T15:04:23;17.10;;;11.20;;
7074;SDS011;3578;51.568;6.932;2023-05-07T15:06:50;12.70;;;11.50;;
7074;SDS011;3578;51.568;6.932;2023-05-07T15:09:18;12.17;;;10.97;;
7074;SDS011;3578;51.568;6.932;2023-05-07T15:11:46;12.20;;;10.97;;
7074;SDS011;3578;51.568;6.932;2023-05-07T15:14:14;11.40;;;10.43;;
7074;SDS011;3578;51.568;6.932;2023-05-07T15:16:41;11.60;;;10.40;;
7074;SDS011;3578;51.568;6.932;2023-05-07T15:19:08;11.50;;;10.30;;
7074;SDS011;3578;51.568;6.932;2023-05-07T15:21:35;11.87;;;10.73;;